Time;durP1;ratioP1;P1;durP2;ratioP2;P2;SDS_P1;SDS_P2;PMS_P1;PMS_P2;Temp;Humidity;BMP_temperature;BMP_pressure;BME280_temperature;BME280_humidity;BME280_pressure;Samples;Min_cycle;Max_cycle;Signal;HPM_P1;HPM_P2
2022/10/23 00:01:49;;;;;;;19.58;2.88;;;12.70;80.50;;;;;;4228007;27;20034;-85
2022/10/23 00:04:15;;;;;;;17.15;2.10;;;12.70;80.50;;;;;;4220822;27;20039;-85
2022/10/23 00:06:35;;;;;;;17.27;2.03;;;12.70;80.50;;;;;;4211854;28;20044;-85
2022/10/23 00:08:54;;;;;;;13.02;2.65;;;12.60;80.40;;;;;;4225433;27;20541;-85
2022/10/23 00:11:18;;;;;;;14.90;1.77;;;12.60;80.40;;;;;;4225067;27;20060;-85
2022/10/23 00:13:37;;;;;;;13.93;2.83;;;12.60;80.50;;;;;;4232979;27;20061;-85
2022/10/23 00:15:56;;;;;;;19.30;2.28;;;12.70;80.70;;;;;;4231242;27;20031;-85
2022/10/23 00:18:16;;;;;;;15.80;1.92;;;12.60;80.70;;;;;;4225041;27;20441;-85
2022/10/23 00:20:35;;;;;;;19.17;2.30;;;12.60;80.80;;;;;;4226641;27;20054;-85
2022/10/23 00:22:54;;;;;;;19.92;2.85;;;12.50;80.80;;;;;;4222257;27;20066;-85
2022/10/23 00:25:13;;;;;;;21.67;2.88;;;12.50;80.80;;;;;;4221718;27;20399;-85
2022/10/23 00:27:32;;;;;;;19.95;2.53;;;12.50;80.90;;;;;;4223626;27;20054;-85
2022/10/23 00:29:51;;;;;;;12.45;2.13;;;12.50;80.90;;;;;;4205324;28;20150;-85
2022/10/23 00:32:10;;;;;;;19.65;2.03;;;12.50;80.90;;;;;;4213491;27;20057;-85
2022/10/23 00:34:29;;;;;;;24.17;2.55;;;12.50;81.00;;;;;;4230264;27;20084;-85
2022/10/23 00:36:48;;;;;;;21.77;2.72;;;12.60;81.10;;;;;;4232081;27;20052;-84
2022/10/23 00:39:07;;;;;;;18.52;2.85;;;12.60;81.20;;;;;;4226717;27;20116;-85
2022/10/23 00:41:28;;;;;;;27.90;2.90;;;12.60;81.20;;;;;;4220274;27;20610;-84
2022/10/23 00:44:00;;;;;;;17.25;2.28;;;12.50;81.10;;;;;;4227415;27;20465;-85
2022/10/23 00:46:19;;;;;;;15.23;2.83;;;12.50;81.20;;;;;;4203832;28;20447;-85
2022/10/23 00:48:38;;;;;;;21.10;3.00;;;12.60;81.20;;;;;;4233171;27;20035;-85
2022/10/23 00:50:57;;;;;;;25.92;3.35;;;12.60;81.20;;;;;;4238796;27;20058;-85
2022/10/23 00:53:18;;;;;;;34.47;3.15;;;12.50;81.10;;;;;;4211744;28;20388;-85
2022/10/23 00:55:40;;;;;;;20.40;3.47;;;12.50;81.10;;;;;;4213230;28;20066;-85
2022/10/23 00:57:59;;;;;;;22.83;2.50;;;12.40;81.10;;;;;;4233319;27;20078;-85
2022/10/23 01:00:24;;;;;;;18.55;2.05;;;12.40;81.10;;;;;;4230313;28;20038;-84
2022/10/23 01:02:43;;;;;;;14.27;1.92;;;12.40;81.10;;;;;;4216203;28;20035;-85
2022/10/23 01:05:02;;;;;;;14.77;2.60;;;12.40;81.10;;;;;;4230200;28;20062;-84
2022/10/23 01:07:41;;;;;;;14.10;2.08;;;12.40;81.10;;;;;;4229902;28;20077;-85
2022/10/23 01:10:09;;;;;;;22.65;2.58;;;12.30;81.20;;;;;;4230660;28;20107;-85
2022/10/23 01:12:59;;;;;;;20.13;2.55;;;12.40;81.10;;;;;;4223081;27;20066;-84
2022/10/23 01:15:18;;;;;;;23.25;2.78;;;12.30;81.10;;;;;;4210622;28;20042;-85
2022/10/23 01:17:47;;;;;;;23.75;2.33;;;12.30;81.00;;;;;;4226665;28;20043;-85
2022/10/23 01:20:22;;;;;;;25.85;2.90;;;12.30;81.10;;;;;;4228108;27;20492;-85
2022/10/23 01:23:03;;;;;;;15.95;2.28;;;12.20;81.00;;;;;;4221978;28;20043;-85
2022/10/23 01:25:32;;;;;;;24.92;2.30;;;12.20;81.00;;;;;;4225432;28;20061;-84
2022/10/23 01:27:59;;;;;;;20.33;2.22;;;12.20;80.90;;;;;;4209110;28;20091;-85
2022/10/23 01:30:18;;;;;;;17.88;2.38;;;12.30;81.00;;;;;;4225210;28;20044;-84
2022/10/23 01:32:58;;;;;;;20.50;2.10;;;12.20;80.90;;;;;;4217133;28;20056;-85
2022/10/23 01:35:23;;;;;;;17.98;2.13;;;12.20;81.20;;;;;;4226921;27;20526;-85
2022/10/23 01:37:44;;;;;;;;;;;12.10;81.00;;;;;;4227457;27;20028;-85
2022/10/23 01:40:08;;;;;;;13.98;2.17;;;12.10;81.30;;;;;;4230930;27;20359;-85
2022/10/23 01:42:34;;;;;;;18.85;2.72;;;12.10;80.80;;;;;;4230450;27;20031;-85
2022/10/23 01:45:06;;;;;;;28.35;2.38;;;12.10;80.90;;;;;;4212860;27;20133;-85
2022/10/23 01:47:29;;;;;;;19.30;2.53;;;12.00;81.00;;;;;;4246426;27;20042;-84
2022/10/23 01:49:50;;;;;;;32.83;2.83;;;12.10;81.10;;;;;;4239273;27;20035;-85
2022/10/23 01:52:13;;;;;;;19.40;2.38;;;12.00;81.10;;;;;;4250820;27;20267;-84
2022/10/23 01:54:37;;;;;;;17.02;2.80;;;12.00;81.10;;;;;;4250027;27;20068;-84
2022/10/23 01:56:57;;;;;;;19.63;2.03;;;12.00;81.10;;;;;;4236712;27;20598;-85
2022/10/23 01:59:23;;;;;;;9.50;1.88;;;12.00;81.10;;;;;;4228006;27;20035;-84
2022/10/23 02:01:45;;;;;;;16.48;2.33;;;12.10;81.20;;;;;;4227851;27;20628;-85
2022/10/23 02:04:08;;;;;;;20.05;3.17;;;12.00;81.20;;;;;;4215669;27;20035;-85
2022/10/23 02:06:28;;;;;;;17.20;2.00;;;12.00;81.20;;;;;;4226950;27;20061;-85
2022/10/23 02:08:47;;;;;;;19.70;2.35;;;11.90;81.20;;;;;;4224519;27;20070;-85
2022/10/23 02:11:16;;;;;;;15.82;2.85;;;11.90;81.20;;;;;;4223642;27;20035;-85
2022/10/23 02:13:44;;;;;;;20.63;2.45;;;11.90;81.20;;;;;;4220475;28;20069;-85
2022/10/23 02:16:27;;;;;;;16.50;2.83;;;11.80;81.20;;;;;;4212225;27;20072;-85
2022/10/23 02:18:55;;;;;;;23.13;2.50;;;11.90;81.40;;;;;;4212402;27;20067;-85
2022/10/23 02:21:19;;;;;;;18.95;2.60;;;11.80;81.30;;;;;;4234776;27;20163;-85
2022/10/23 02:23:48;;;;;;;14.45;2.45;;;11.80;81.30;;;;;;4228524;27;20034;-85
2022/10/23 02:26:16;;;;;;;26.33;3.03;;;11.80;81.40;;;;;;4217756;27;20101;-85
2022/10/23 02:29:10;;;;;;;18.77;2.33;;;11.80;81.40;;;;;;4227817;27;20240;-85
2022/10/23 02:31:30;;;;;;;17.45;2.70;;;11.80;81.60;;;;;;4203003;28;20170;-85
2022/10/23 02:33:49;;;;;;;14.50;2.90;;;11.90;81.60;;;;;;4234414;27;20035;-85
2022/10/23 02:36:08;;;;;;;23.13;2.70;;;11.90;81.70;;;;;;4227735;27;20108;-85
2022/10/23 02:38:32;;;;;;;23.83;2.72;;;11.80;81.80;;;;;;4215495;28;20031;-85
2022/10/23 02:40:52;;;;;;;;;;;11.80;81.90;;;;;;4214791;28;20070;-85
2022/10/23 02:43:25;;;;;;;19.35;3.13;;;11.90;82.50;;;;;;4217303;28;20003;-85
2022/10/23 02:46:11;;;;;;;23.33;3.17;;;11.80;81.90;;;;;;4234646;27;20026;-85
2022/10/23 02:48:44;;;;;;;29.92;4.47;;;11.80;82.00;;;;;;4213512;28;20064;-85
2022/10/23 02:51:16;;;;;;;23.27;3.92;;;11.80;82.20;;;;;;4226983;27;20467;-85
2022/10/23 02:54:06;;;;;;;36.10;4.88;;;11.80;82.10;;;;;;4227523;27;20069;-85
2022/10/23 02:56:40;;;;;;;28.83;4.20;;;11.80;82.20;;;;;;4218793;27;20120;-85
2022/10/23 02:59:23;;;;;;;34.25;4.90;;;11.80;82.30;;;;;;4213083;28;20233;-85
2022/10/23 03:02:12;;;;;;;33.17;4.60;;;11.80;82.50;;;;;;4217046;27;20047;-85
2022/10/23 03:04:32;;;;;;;27.17;4.47;;;11.80;83.10;;;;;;4205841;28;20080;-85
2022/10/23 03:06:51;;;;;;;27.50;6.78;;;12.00;82.80;;;;;;4219022;27;20043;-85
2022/10/23 03:09:11;;;;;;;29.10;5.35;;;12.00;82.80;;;;;;4216044;28;20078;-85
2022/10/23 03:11:30;;;;;;;30.48;5.30;;;11.90;82.80;;;;;;4228281;27;20066;-85
2022/10/23 03:13:50;;;;;;;25.13;5.95;;;11.90;82.90;;;;;;4214228;27;20120;-85
2022/10/23 03:16:09;;;;;;;37.63;6.65;;;11.90;83.00;;;;;;4216678;28;20538;-86
2022/10/23 03:18:28;;;;;;;25.65;5.55;;;12.00;83.00;;;;;;4230485;27;20034;-85
2022/10/23 03:20:47;;;;;;;28.67;6.05;;;11.90;82.80;;;;;;4219254;27;20078;-85
2022/10/23 03:23:06;;;;;;;29.15;5.70;;;11.90;82.80;;;;;;4217805;28;20039;-86
2022/10/23 03:25:25;;;;;;;30.33;6.30;;;11.90;82.90;;;;;;4216322;27;20092;-85
2022/10/23 03:27:44;;;;;;;21.95;5.50;;;11.90;83.00;;;;;;4217738;28;20114;-85
2022/10/23 03:30:05;;;;;;;28.35;5.90;;;12.00;83.20;;;;;;4227060;27;20034;-85
2022/10/23 03:32:24;;;;;;;24.38;5.85;;;11.90;83.10;;;;;;4223395;28;20026;-85
2022/10/23 03:34:43;;;;;;;27.25;5.30;;;12.00;83.20;;;;;;4225910;27;20081;-85
2022/10/23 03:37:02;;;;;;;39.90;6.78;;;11.90;83.20;;;;;;4214627;27;20057;-85
2022/10/23 03:39:22;;;;;;;27.50;6.13;;;12.00;83.30;;;;;;4217312;28;20109;-85
2022/10/23 03:41:41;;;;;;;33.85;8.15;;;12.00;83.40;;;;;;4234259;27;20395;-85
2022/10/23 03:44:00;;;;;;;38.35;7.65;;;12.00;83.50;;;;;;4215873;28;20038;-85
2022/10/23 03:46:19;;;;;;;44.83;7.40;;;12.00;83.50;;;;;;4213124;27;20117;-84
2022/10/23 03:48:38;;;;;;;29.63;6.50;;;12.00;83.50;;;;;;4229208;27;20626;-85
2022/10/23 03:50:57;;;;;;;39.00;7.32;;;12.00;83.50;;;;;;4215879;27;20042;-85
2022/10/23 03:53:16;;;;;;;26.60;7.55;;;12.10;83.50;;;;;;4214681;28;20427;-84
2022/10/23 03:55:35;;;;;;;33.17;7.00;;;12.00;83.50;;;;;;4228264;27;20038;-85
2022/10/23 03:57:54;;;;;;;31.92;7.13;;;12.00;83.50;;;;;;4232147;27;20047;-85
2022/10/23 04:00:13;;;;;;;21.92;6.47;;;12.00;83.50;;;;;;4229883;27;22681;-85
2022/10/23 04:02:33;;;;;;;25.80;6.47;;;12.10;83.50;;;;;;4217412;28;20038;-85
2022/10/23 04:04:52;;;;;;;26.38;6.20;;;12.20;83.60;;;;;;4224845;27;20506;-85
2022/10/23 04:07:12;;;;;;;38.92;8.02;;;12.20;83.60;;;;;;4235543;27;20407;-85
2022/10/23 04:09:31;;;;;;;39.67;7.55;;;12.20;83.60;;;;;;4215048;27;20158;-85
2022/10/23 04:11:50;;;;;;;31.35;7.07;;;12.10;83.50;;;;;;4228808;27;20039;-85
2022/10/23 04:14:13;;;;;;;38.25;6.78;;;12.10;83.50;;;;;;4227380;27;20038;-84
2022/10/23 04:16:32;;;;;;;29.95;7.30;;;12.10;83.40;;;;;;4224941;27;20111;-85
2022/10/23 04:18:52;;;;;;;23.38;5.57;;;12.10;83.30;;;;;;4241034;27;20046;-85
2022/10/23 04:21:11;;;;;;;27.98;5.82;;;12.10;83.20;;;;;;4222978;27;20169;-85
2022/10/23 04:23:30;;;;;;;25.02;5.55;;;12.10;83.20;;;;;;4235798;27;20031;-85
2022/10/23 04:25:49;;;;;;;35.80;6.38;;;12.10;83.20;;;;;;4227891;27;20042;-84
2022/10/23 04:28:08;;;;;;;19.25;4.85;;;12.20;83.20;;;;;;4217338;27;20055;-85
2022/10/23 04:30:27;;;;;;;19.33;5.20;;;12.10;83.10;;;;;;4216749;28;20420;-85
2022/10/23 04:32:52;;;;;;;25.48;6.13;;;12.10;83.10;;;;;;4231631;27;20038;-85
2022/10/23 04:35:11;;;;;;;21.52;5.18;;;12.10;83.10;;;;;;4226430;27;20050;-84
2022/10/23 04:37:30;;;;;;;26.88;5.85;;;12.10;83.00;;;;;;4217326;27;20227;-85
2022/10/23 04:39:49;;;;;;;20.23;5.68;;;12.00;82.90;;;;;;4225518;27;20047;-85
2022/10/23 04:42:08;;;;;;;27.92;6.65;;;12.20;83.10;;;;;;4206063;28;20107;-85
2022/10/23 04:44:27;;;;;;;27.25;5.97;;;12.10;83.00;;;;;;4217891;28;20088;-85
2022/10/23 04:46:46;;;;;;;28.83;6.28;;;12.10;83.00;;;;;;4222512;27;20054;-85
2022/10/23 04:49:05;;;;;;;20.02;6.43;;;12.00;82.90;;;;;;4221258;28;20177;-85
2022/10/23 04:51:24;;;;;;;20.75;5.30;;;12.00;83.00;;;;;;4229149;27;20041;-85
2022/10/23 04:54:03;;;;;;;29.05;6.68;;;12.00;82.90;;;;;;4228749;27;20023;-84
2022/10/23 04:56:23;;;;;;;31.25;6.95;;;12.00;82.90;;;;;;4211370;28;20387;-85
2022/10/23 04:58:42;;;;;;;25.73;6.88;;;12.00;82.90;;;;;;4228766;27;20037;-85
2022/10/23 05:01:01;;;;;;;26.17;6.78;;;12.00;82.90;;;;;;4226390;28;20043;-86
2022/10/23 05:03:22;;;;;;;29.45;7.15;;;12.00;82.90;;;;;;4224701;27;20515;-85
2022/10/23 05:05:41;;;;;;;32.15;6.15;;;12.00;82.90;;;;;;4227640;28;20121;-85
2022/10/23 05:08:00;;;;;;;25.00;6.57;;;12.00;82.90;;;;;;4226219;27;20039;-85
2022/10/23 05:10:19;;;;;;;28.63;7.18;;;12.00;82.90;;;;;;4222327;27;20076;-85
2022/10/23 05:12:38;;;;;;;25.50;7.60;;;12.10;83.00;;;;;;4218579;27;20035;-84
2022/10/23 05:14:58;;;;;;;28.00;7.00;;;12.00;82.90;;;;;;4237060;27;20039;-84
2022/10/23 05:17:28;;;;;;;26.23;7.32;;;11.90;82.80;;;;;;4222551;27;20420;-85
2022/10/23 05:19:54;;;;;;;33.53;8.43;;;11.90;83.60;;;;;;4217730;27;20667;-85
2022/10/23 05:22:13;;;;;;;33.88;7.55;;;11.90;82.90;;;;;;4224639;27;20039;-85
2022/10/23 05:24:33;;;;;;;37.75;8.27;;;11.90;82.80;;;;;;4235444;27;20076;-85
2022/10/23 05:26:52;;;;;;;27.20;8.95;;;11.90;82.90;;;;;;4243195;27;20031;-85
2022/10/23 05:29:11;;;;;;;27.05;7.90;;;11.90;83.00;;;;;;4220669;27;20043;-85
2022/10/23 05:31:34;;;;;;;32.95;9.57;;;11.90;83.00;;;;;;4239879;27;20030;-85
2022/10/23 05:33:55;;;;;;;33.83;8.75;;;12.00;83.20;;;;;;4233464;27;20038;-85
2022/10/23 05:36:15;;;;;;;28.88;8.40;;;11.90;83.10;;;;;;4237403;27;20080;-85
2022/10/23 05:38:35;;;;;;;29.83;9.15;;;11.90;83.10;;;;;;4244816;27;20050;-85
2022/10/23 05:40:54;;;;;;;33.20;8.57;;;11.90;83.00;;;;;;4224915;27;20420;-85
2022/10/23 05:43:13;;;;;;;33.67;9.27;;;11.90;83.10;;;;;;4231304;27;20030;-85
2022/10/23 05:45:32;;;;;;;29.63;9.15;;;12.00;83.30;;;;;;4226760;27;20038;-84
2022/10/23 05:47:52;;;;;;;31.10;9.77;;;12.00;83.30;;;;;;4238753;27;20096;-84
2022/10/23 05:50:12;;;;;;;34.53;9.70;;;12.00;83.30;;;;;;4225705;27;20074;-84
2022/10/23 05:52:31;;;;;;;42.80;10.48;;;12.00;83.30;;;;;;4231770;27;20498;-84
2022/10/23 05:54:50;;;;;;;27.70;9.85;;;11.90;83.30;;;;;;4221018;27;20455;-83
2022/10/23 05:57:10;;;;;;;27.25;9.23;;;12.00;83.30;;;;;;4233018;27;20022;-84
2022/10/23 05:59:29;;;;;;;28.17;9.65;;;12.00;83.30;;;;;;4223006;27;20039;-83
2022/10/23 06:01:48;;;;;;;53.30;10.50;;;12.00;83.30;;;;;;4231347;27;20423;-84
2022/10/23 06:04:08;;;;;;;29.95;9.00;;;12.00;83.20;;;;;;4244705;27;20387;-84
2022/10/23 06:06:27;;;;;;;32.03;9.07;;;12.00;83.10;;;;;;4215881;27;20040;-85
2022/10/23 06:08:46;;;;;;;22.75;8.40;;;12.00;83.10;;;;;;4217222;27;20364;-84
2022/10/23 06:11:10;;;;;;;29.05;8.85;;;12.00;83.00;;;;;;4228422;27;20069;-86
2022/10/23 06:13:30;;;;;;;27.77;8.45;;;11.90;82.80;;;;;;4214870;28;20094;-86
2022/10/23 06:15:49;;;;;;;35.22;8.50;;;12.00;82.80;;;;;;4222241;27;20027;-85
2022/10/23 06:18:08;;;;;;;29.67;8.30;;;11.90;82.60;;;;;;4214438;28;20126;-84
2022/10/23 06:20:28;;;;;;;23.23;8.65;;;11.90;82.40;;;;;;4228729;27;20414;-85
2022/10/23 06:22:47;;;;;;;24.40;8.90;;;11.90;82.40;;;;;;4214251;28;20112;-85
2022/10/23 06:25:06;;;;;;;18.88;8.35;;;11.90;82.40;;;;;;4225412;27;20083;-84
2022/10/23 06:27:26;;;;;;;18.40;7.65;;;11.80;82.40;;;;;;4209658;27;20043;-85
2022/10/23 06:29:45;;;;;;;25.40;9.05;;;11.80;82.50;;;;;;4229663;27;20447;-85
2022/10/23 06:32:04;;;;;;;26.70;8.80;;;11.80;82.60;;;;;;4231894;27;20046;-85
2022/10/23 06:34:23;;;;;;;32.88;9.32;;;11.80;82.60;;;;;;4224917;27;20035;-85
2022/10/23 06:36:43;;;;;;;22.73;8.02;;;11.80;82.70;;;;;;4217849;28;20031;-86
2022/10/23 06:39:03;;;;;;;24.63;8.70;;;11.80;82.70;;;;;;4227409;27;20050;-85
2022/10/23 06:41:23;;;;;;;22.02;8.88;;;11.90;82.80;;;;;;4209841;27;20533;-85
2022/10/23 06:43:42;;;;;;;21.63;8.13;;;11.80;82.60;;;;;;4211387;28;20627;-85
2022/10/23 06:46:03;;;;;;;25.95;8.80;;;11.90;82.70;;;;;;4221062;27;20043;-85
2022/10/23 06:48:22;;;;;;;18.88;7.55;;;11.80;82.70;;;;;;4206924;28;20283;-84
2022/10/23 06:50:41;;;;;;;11.52;6.45;;;11.80;82.70;;;;;;4215499;28;20073;-85
2022/10/23 06:53:02;;;;;;;18.38;6.47;;;11.80;82.70;;;;;;4217677;27;20039;-85
2022/10/23 06:55:22;;;;;;;11.48;6.28;;;11.80;82.70;;;;;;4227165;27;20039;-86
2022/10/23 06:57:41;;;;;;;14.50;6.18;;;11.80;82.70;;;;;;4221036;27;20068;-85
2022/10/23 07:00:00;;;;;;;14.27;6.18;;;11.80;82.70;;;;;;4212064;28;20109;-85
2022/10/23 07:02:19;;;;;;;13.10;6.18;;;11.80;82.50;;;;;;4233539;27;20097;-85
2022/10/23 07:04:40;;;;;;;17.73;5.93;;;11.80;82.50;;;;;;4216040;27;20054;-85
2022/10/23 07:06:59;;;;;;;13.77;6.05;;;11.80;82.40;;;;;;4214436;27;20092;-85
2022/10/23 07:09:19;;;;;;;17.00;5.80;;;11.80;82.30;;;;;;4208966;27;20699;-85
2022/10/23 07:11:38;;;;;;;17.58;6.07;;;11.80;82.30;;;;;;4221663;27;20035;-84
2022/10/23 07:13:57;;;;;;;16.80;6.35;;;11.80;82.30;;;;;;4205789;28;20082;-85
2022/10/23 07:16:21;;;;;;;17.02;5.82;;;11.80;82.50;;;;;;4227351;27;20147;-86
2022/10/23 07:18:41;;;;;;;18.67;5.78;;;11.80;82.50;;;;;;4235196;27;20564;-85
2022/10/23 07:21:00;;;;;;;23.60;6.05;;;11.80;82.50;;;;;;4217030;27;20160;-84
2022/10/23 07:23:19;;;;;;;10.75;5.47;;;11.80;82.40;;;;;;4229085;27;20581;-85
2022/10/23 07:25:38;;;;;;;12.32;5.53;;;11.80;82.40;;;;;;4216067;27;20090;-85
2022/10/23 07:27:57;;;;;;;13.55;5.65;;;11.80;82.50;;;;;;4229831;27;20038;-85
2022/10/23 07:30:17;;;;;;;15.88;6.10;;;11.80;82.50;;;;;;4228301;27;20530;-85
2022/10/23 07:32:37;;;;;;;15.20;5.85;;;11.80;82.50;;;;;;4223243;27;20099;-84
2022/10/23 07:34:56;;;;;;;20.08;6.25;;;11.80;82.50;;;;;;4224266;27;20076;-84
2022/10/23 07:37:15;;;;;;;12.20;6.10;;;11.80;82.40;;;;;;4215982;28;20139;-85
2022/10/23 07:39:34;;;;;;;14.27;5.78;;;11.80;82.30;;;;;;4214422;28;20030;-84
2022/10/23 07:41:53;;;;;;;21.05;5.60;;;11.80;82.40;;;;;;4227972;27;20085;-84
2022/10/23 07:44:11;;;;;;;26.58;6.25;;;11.80;82.30;;;;;;4223115;27;20070;-84
2022/10/23 07:46:31;;;;;;;10.23;6.05;;;12.00;82.40;;;;;;4233459;27;20111;-84
2022/10/23 07:48:50;;;;;;;11.75;5.80;;;11.90;82.30;;;;;;4229207;27;20414;-85
2022/10/23 07:51:14;;;;;;;19.00;6.45;;;11.80;82.20;;;;;;4244883;27;20050;-85
2022/10/23 07:53:34;;;;;;;16.77;6.32;;;11.90;82.40;;;;;;4239763;27;20050;-84
2022/10/23 07:55:55;;;;;;;13.85;6.32;;;12.00;82.30;;;;;;4222620;27;20546;-84
2022/10/23 07:58:15;;;;;;;23.65;6.97;;;11.90;82.20;;;;;;4234627;27;20085;-84
2022/10/23 08:00:34;;;;;;;13.38;6.80;;;11.90;82.10;;;;;;4232425;27;20100;-85
2022/10/23 08:02:53;;;;;;;32.53;7.05;;;11.90;81.90;;;;;;4232011;27;20042;-85
2022/10/23 08:05:12;;;;;;;17.08;7.47;;;11.90;82.00;;;;;;4209145;28;20561;-85
2022/10/23 08:07:31;;;;;;;14.15;7.10;;;12.00;82.00;;;;;;4220866;27;20035;-84
2022/10/23 08:09:50;;;;;;;12.35;7.50;;;11.90;81.90;;;;;;4232484;27;20061;-84
2022/10/23 08:12:10;;;;;;;15.75;7.45;;;11.90;82.00;;;;;;4237670;27;20081;-84
2022/10/23 08:14:29;;;;;;;14.82;7.65;;;11.90;81.90;;;;;;4226192;27;20057;-85
2022/10/23 08:16:48;;;;;;;23.25;7.57;;;11.90;82.00;;;;;;4233278;27;20387;-85
2022/10/23 08:19:07;;;;;;;27.33;7.65;;;11.90;82.10;;;;;;4232820;27;20082;-85
2022/10/23 08:21:26;;;;;;;24.52;7.60;;;11.90;82.10;;;;;;4228911;27;20031;-84
2022/10/23 08:23:46;;;;;;;14.05;8.57;;;12.00;83.00;;;;;;4223342;27;20094;-84
2022/10/23 08:26:06;;;;;;;27.48;9.40;;;12.00;82.20;;;;;;4214540;27;20035;-85
2022/10/23 08:28:27;;;;;;;19.10;8.25;;;12.00;82.30;;;;;;4223800;27;20109;-85
2022/10/23 08:30:46;;;;;;;18.77;8.85;;;12.00;82.30;;;;;;4217157;28;20546;-84
2022/10/23 08:33:06;;;;;;;18.17;8.73;;;12.00;82.40;;;;;;4219585;27;20403;-85
2022/10/23 08:35:25;;;;;;;17.23;9.30;;;12.10;82.60;;;;;;4237784;27;20034;-85
2022/10/23 08:37:44;;;;;;;16.30;8.90;;;12.30;82.80;;;;;;4214683;28;20050;-85
2022/10/23 08:40:04;;;;;;;18.67;9.18;;;12.20;82.70;;;;;;4225029;27;20079;-85
2022/10/23 08:42:25;;;;;;;13.55;8.55;;;12.20;82.80;;;;;;4222997;27;20102;-85
2022/10/23 08:45:18;;;;;;;16.58;8.65;;;12.20;82.70;;;;;;4233259;27;20037;-85
2022/10/23 08:47:46;;;;;;;19.38;10.00;;;12.30;82.70;;;;;;4230296;27;20501;-85
2022/10/23 08:50:18;;;;;;;17.98;8.93;;;12.30;82.60;;;;;;4227122;27;20038;-85
2022/10/23 08:53:08;;;;;;;17.83;9.68;;;12.40;82.80;;;;;;4217032;28;20550;-85
2022/10/23 08:55:42;;;;;;;21.40;9.73;;;12.40;82.80;;;;;;4228155;27;20066;-85
2022/10/23 08:58:14;;;;;;;20.02;9.60;;;12.50;82.90;;;;;;4210848;28;20102;-85
2022/10/23 09:00:34;;;;;;;19.73;10.43;;;12.50;82.90;;;;;;4235872;27;20118;-85
2022/10/23 09:02:54;;;;;;;20.20;9.90;;;12.50;82.60;;;;;;4228443;28;20043;-85
2022/10/23 09:05:17;;;;;;;22.23;10.93;;;12.60;82.50;;;;;;4224659;28;20092;-84
2022/10/23 09:07:52;;;;;;;16.23;9.68;;;12.60;82.30;;;;;;4222487;28;20034;-85
2022/10/23 09:10:36;;;;;;;18.13;9.52;;;12.60;82.30;;;;;;4208385;28;20035;-85
2022/10/23 09:13:35;;;;;;;16.88;9.05;;;12.60;82.30;;;;;;4207870;28;20035;-85
2022/10/23 09:16:28;;;;;;;18.02;9.32;;;12.70;82.40;;;;;;4207875;28;20064;-85
2022/10/23 09:18:49;;;;;;;16.17;8.23;;;12.70;82.50;;;;;;4222538;27;20062;-85
2022/10/23 09:21:11;;;;;;;13.95;8.52;;;12.80;82.50;;;;;;4225669;28;20030;-86
2022/10/23 09:23:30;;;;;;;16.10;8.90;;;12.80;82.50;;;;;;4221320;28;20050;-85
2022/10/23 09:25:55;;;;;;;16.58;8.77;;;12.90;82.60;;;;;;4228499;28;20455;-85
2022/10/23 09:28:35;;;;;;;16.88;8.75;;;12.90;82.50;;;;;;4229119;28;20399;-86
2022/10/23 09:31:06;;;;;;;24.27;9.25;;;12.90;82.40;;;;;;4227092;28;20034;-85
2022/10/23 09:33:27;;;;;;;15.90;8.18;;;13.00;82.30;;;;;;4216768;28;20058;-85
2022/10/23 09:35:52;;;;;;;12.93;8.07;;;13.00;82.20;;;;;;4227273;28;20798;-85
2022/10/23 09:38:27;;;;;;;15.48;7.82;;;13.00;81.90;;;;;;4213357;28;20070;-85
2022/10/23 09:40:47;;;;;;;14.90;7.90;;;13.10;81.80;;;;;;4225616;28;20122;-86
2022/10/23 09:43:20;;;;;;;15.70;8.18;;;13.10;81.80;;;;;;4225079;28;20640;-84
2022/10/23 09:45:41;;;;;;;20.20;9.27;;;13.10;81.50;;;;;;4203235;28;20051;-85
2022/10/23 09:48:09;;;;;;;18.10;8.38;;;13.20;81.60;;;;;;4229391;28;20486;-85
2022/10/23 09:50:28;;;;;;;17.95;8.90;;;13.20;81.60;;;;;;4234173;28;20105;-86
2022/10/23 09:52:52;;;;;;;19.13;8.68;;;13.20;81.60;;;;;;4226478;28;20047;-85
2022/10/23 09:55:24;;;;;;;17.90;8.27;;;13.20;81.50;;;;;;4229684;27;20092;-86
2022/10/23 09:57:44;;;;;;;16.52;8.07;;;13.30;81.50;;;;;;4211614;28;20280;-85
2022/10/23 10:00:15;;;;;;;12.90;7.13;;;13.30;81.50;;;;;;4228401;27;20062;-86
2022/10/23 10:02:36;;;;;;;13.55;7.07;;;13.30;81.40;;;;;;4209700;27;20035;-85
2022/10/23 10:04:55;;;;;;;15.55;7.97;;;13.40;81.50;;;;;;4211832;28;20030;-85
2022/10/23 10:07:21;;;;;;;13.88;7.43;;;13.40;81.40;;;;;;4226323;27;20303;-85
2022/10/23 10:09:40;;;;;;;15.15;7.35;;;13.50;81.10;;;;;;4209476;28;20039;-85
2022/10/23 10:12:49;;;;;;;17.23;7.85;;;13.50;80.90;;;;;;4213248;27;20465;-86
2022/10/23 10:15:26;;;;;;;17.30;7.35;;;13.50;80.90;;;;;;4221838;27;20099;-86
2022/10/23 10:17:51;;;;;;;14.20;8.32;;;13.60;81.10;;;;;;4230230;27;20049;-85
2022/10/23 10:20:20;;;;;;;15.68;7.85;;;13.60;81.30;;;;;;4234261;27;20039;-85
2022/10/23 10:22:46;;;;;;;20.65;7.93;;;13.70;81.40;;;;;;4235930;27;20104;-85
2022/10/23 10:25:08;;;;;;;13.00;7.55;;;13.70;81.40;;;;;;4226988;27;20157;-86
2022/10/23 10:28:06;;;;;;;18.85;8.35;;;13.80;81.40;;;;;;4235856;27;20051;-85
2022/10/23 10:30:34;;;;;;;14.48;8.10;;;13.80;81.20;;;;;;4230629;27;20039;-86
2022/10/23 10:33:00;;;;;;;17.15;9.38;;;13.90;81.10;;;;;;4226240;27;20050;-85
2022/10/23 10:35:39;;;;;;;20.83;9.20;;;13.90;80.80;;;;;;4226534;27;20077;-86
2022/10/23 10:38:19;;;;;;;17.38;8.32;;;14.00;80.70;;;;;;4237793;27;20042;-86
2022/10/23 10:40:45;;;;;;;14.77;8.43;;;14.00;80.80;;;;;;4236802;27;20118;-85
2022/10/23 10:43:38;;;;;;;19.05;7.65;;;14.10;80.90;;;;;;4217326;27;20434;-86
2022/10/23 10:46:24;;;;;;;19.00;7.35;;;14.10;80.80;;;;;;4212044;27;20031;-86
2022/10/23 10:49:04;;;;;;;15.50;6.03;;;14.20;81.10;;;;;;4209854;27;20116;-85
2022/10/23 10:51:49;;;;;;;19.42;6.60;;;14.30;81.30;;;;;;4214396;28;20088;-86
2022/10/23 10:54:39;;;;;;;20.70;7.55;;;14.30;80.90;;;;;;4215487;27;20038;-86
2022/10/23 10:57:01;;;;;;;22.73;6.30;;;14.40;80.50;;;;;;4221035;27;20034;-87
2022/10/23 10:59:41;;;;;;;15.80;6.30;;;14.50;80.50;;;;;;4190045;28;20058;-87
2022/10/23 11:02:25;;;;;;;14.57;5.03;;;14.50;79.80;;;;;;4204628;28;20039;-87
2022/10/23 11:04:51;;;;;;;11.32;5.55;;;14.60;79.80;;;;;;4205423;28;20071;-86
2022/10/23 11:07:14;;;;;;;13.75;5.22;;;14.70;80.10;;;;;;4212246;28;20054;-86
2022/10/23 11:09:33;;;;;;;14.93;4.47;;;14.70;79.80;;;;;;4225376;27;20035;-87
2022/10/23 11:11:53;;;;;;;12.18;4.72;;;14.80;79.80;;;;;;4219258;27;20042;-87
2022/10/23 11:14:24;;;;;;;16.75;5.72;;;14.80;79.60;;;;;;4222817;27;20104;-86
2022/10/23 11:17:03;;;;;;;13.30;4.60;;;14.90;79.20;;;;;;4207168;28;20043;-87
2022/10/23 11:19:42;;;;;;;10.38;4.82;;;14.90;78.60;;;;;;4225223;28;20055;-87
2022/10/23 11:22:30;;;;;;;17.77;4.78;;;14.90;78.50;;;;;;4225381;28;20262;-88
2022/10/23 11:25:14;;;;;;;18.45;4.80;;;15.00;78.00;;;;;;4221930;27;20042;-88
2022/10/23 11:27:59;;;;;;;20.75;4.95;;;15.00;78.10;;;;;;4199124;28;20077;-88
2022/10/23 11:30:39;;;;;;;18.48;5.30;;;15.00;77.50;;;;;;4213941;27;20097;-86
2022/10/23 11:33:36;;;;;;;13.10;4.70;;;15.10;77.60;;;;;;4215334;27;20089;-87
2022/10/23 11:36:19;;;;;;;13.40;4.38;;;15.10;77.10;;;;;;4204549;28;20055;-87
2022/10/23 11:38:40;;;;;;;14.48;3.88;;;15.10;77.00;;;;;;4221304;27;20560;-89
2022/10/23 11:41:21;;;;;;;11.40;4.47;;;15.10;77.50;;;;;;4205627;28;20120;-88
2022/10/23 11:43:47;;;;;;;17.25;4.97;;;15.20;77.40;;;;;;4200684;28;20121;-89
2022/10/23 11:45:47;;;;;;;11.70;4.50;;;15.20;77.10;;;;;;4207501;28;21910;-88
2022/10/23 11:47:58;;;;;;;15.30;5.00;;;15.20;77.00;;;;;;4199344;28;20040;-88
2022/10/23 11:50:05;;;;;;;13.25;4.70;;;15.20;77.10;;;;;;4203147;28;20039;-87
2022/10/23 11:52:21;;;;;;;13.90;4.63;;;15.20;76.40;;;;;;4204787;28;20027;-87
2022/10/23 11:54:25;;;;;;;13.05;4.25;;;15.20;76.10;;;;;;4203644;28;20503;-88
2022/10/23 11:56:29;;;;;;;11.73;4.05;;;15.30;76.30;;;;;;4190630;28;21807;-88
2022/10/23 11:58:49;;;;;;;16.52;4.53;;;15.30;76.20;;;;;;4214705;27;20019;-88
2022/10/23 12:01:02;;;;;;;16.35;3.50;;;15.30;75.50;;;;;;4202895;28;20420;-87
2022/10/23 12:03:04;;;;;;;14.45;3.30;;;15.30;76.40;;;;;;4199940;28;20411;-88
2022/10/23 12:05:36;;;;;;;9.10;3.80;;;15.30;75.70;;;;;;4190016;28;20720;-89
2022/10/23 12:07:39;;;;;;;13.35;3.38;;;15.30;75.10;;;;;;4215801;28;20028;-88
2022/10/23 12:09:43;;;;;;;;;;;15.30;75.50;;;;;;4222244;27;20028;-89
2022/10/23 12:11:48;;;;;;;13.05;3.75;;;15.30;74.50;;;;;;4196550;28;20287;-88
2022/10/23 12:13:48;;;;;;;13.82;3.90;;;15.30;75.30;;;;;;4203072;28;20040;-89
2022/10/23 12:15:53;;;;;;;19.00;4.30;;;15.30;75.20;;;;;;4199510;28;20032;-87
2022/10/23 12:18:11;;;;;;;6.43;2.97;;;15.30;75.10;;;;;;4212668;28;20028;-87
2022/10/23 12:20:21;;;;;;;10.10;3.30;;;15.30;75.00;;;;;;4214644;27;20087;-86